createdAt,value
2023-04-15T00:01:37.764Z,3.55
2023-04-15T00:06:43.352Z,3.46
2023-04-15T00:11:48.720Z,3.37
2023-04-15T00:16:56.831Z,3.34
2023-04-15T00:22:01.439Z,3.30
2023-04-15T00:27:06.972Z,3.28
2023-04-15T00:32:12.009Z,3.20
2023-04-15T00:37:19.201Z,3.19
2023-04-15T00:42:25.614Z,3.11
2023-04-15T00:47:31.923Z,3.00
2023-04-15T00:52:37.780Z,3.04
2023-04-15T00:57:43.678Z,3.00
2023-04-15T01:02:49.721Z,3.00
2023-04-15T01:07:56.804Z,2.92
2023-04-15T01:13:03.726Z,2.81
2023-04-15T01:18:10.298Z,2.83
2023-04-15T01:23:17.982Z,2.81
2023-04-15T01:28:23.363Z,2.70
2023-04-15T01:33:28.544Z,2.75
2023-04-15T01:38:53.352Z,2.67
2023-04-15T01:44:00.663Z,2.45
2023-04-15T01:49:07.329Z,2.43
2023-04-15T01:54:14.039Z,2.26
2023-04-15T01:59:20.518Z,2.31
2023-04-15T02:04:27.309Z,2.18
2023-04-15T02:09:34.518Z,2.09
2023-04-15T02:14:41.192Z,2.01
2023-04-15T02:19:48.840Z,2.04
2023-04-15T02:24:55.263Z,2.24
2023-04-15T02:30:01.792Z,2.41
2023-04-15T02:35:09.670Z,2.50
2023-04-15T02:40:16.313Z,2.76
2023-04-15T02:45:29.396Z,2.91
2023-04-15T02:50:41.668Z,3.30
2023-04-15T02:55:50.707Z,3.16
2023-04-15T03:00:57.331Z,3.25
2023-04-15T03:06:04.289Z,3.68
2023-04-15T03:11:10.985Z,3.51
2023-04-15T03:16:18.319Z,3.59
2023-04-15T03:21:25.274Z,3.51
2023-04-15T03:26:33.067Z,3.69
2023-04-15T03:31:45.345Z,3.80
2023-04-15T03:36:52.124Z,3.80
2023-04-15T03:42:00.197Z,3.73
2023-04-15T03:47:06.930Z,4.59
2023-04-15T03:52:13.358Z,4.39
2023-04-15T03:57:19.992Z,5.19
2023-04-15T04:02:26.864Z,5.31
2023-04-15T04:07:33.852Z,5.96
2023-04-15T04:12:40.949Z,5.64
2023-04-15T04:17:47.684Z,5.29
2023-04-15T04:22:54.312Z,5.10
2023-04-15T04:28:00.845Z,5.35
2023-04-15T04:33:08.495Z,5.76
2023-04-15T04:38:15.218Z,5.30
2023-04-15T04:43:21.968Z,5.43
2023-04-15T04:48:28.773Z,5.65
2023-04-15T04:53:36.457Z,5.73
2023-04-15T04:58:43.059Z,6.05
2023-04-15T05:03:49.955Z,6.36
2023-04-15T05:08:57.346Z,6.15
2023-04-15T05:14:03.795Z,6.25
2023-04-15T05:19:10.653Z,6.83
2023-04-15T05:24:17.665Z,6.96
2023-04-15T05:29:24.610Z,6.20
2023-04-15T05:34:31.750Z,5.97
2023-04-15T05:39:38.328Z,6.50
2023-04-15T05:44:44.965Z,7.69
2023-04-15T05:49:52.053Z,7.18
2023-04-15T05:54:58.961Z,7.53
2023-04-15T06:00:06.679Z,7.31
2023-04-15T06:05:21.126Z,6.61
2023-04-15T06:10:27.883Z,6.08
2023-04-15T06:15:34.639Z,5.81
2023-04-15T06:20:42.554Z,5.39
2023-04-15T06:25:49.402Z,5.37
2023-04-15T06:30:56.838Z,5.26
2023-04-15T06:36:03.618Z,5.13
2023-04-15T06:41:10.584Z,5.31
2023-04-15T06:46:17.520Z,5.07
2023-04-15T06:51:26.647Z,4.93
2023-04-15T06:56:34.453Z,5.26
2023-04-15T07:01:43.213Z,5.11
2023-04-15T07:06:49.818Z,5.57
2023-04-15T07:11:56.547Z,5.45
2023-04-15T07:17:03.989Z,5.09
2023-04-15T07:22:10.800Z,5.23
2023-04-15T07:27:18.556Z,5.28
2023-04-15T07:32:25.376Z,5.31
2023-04-15T07:37:32.167Z,5.23
2023-04-15T07:42:41.155Z,5.48
2023-04-15T07:47:48.127Z,5.52
2023-04-15T07:52:55.277Z,5.55
2023-04-15T07:58:02.070Z,5.75
2023-04-15T08:03:09.084Z,5.55
2023-04-15T08:08:16.039Z,5.57
2023-04-15T08:13:22.935Z,5.69
2023-04-15T08:18:29.545Z,5.70
2023-04-15T08:23:36.346Z,5.88
2023-04-15T08:28:44.917Z,5.79
2023-04-15T08:33:53.106Z,5.76
2023-04-15T08:38:59.695Z,5.95
2023-04-15T08:44:06.725Z,6.06
2023-04-15T08:49:39.301Z,6.02
2023-04-15T08:54:46.388Z,6.20
2023-04-15T08:59:54.810Z,6.70
2023-04-15T09:05:00.169Z,6.52
2023-04-15T09:10:07.388Z,6.20
2023-04-15T09:15:14.471Z,6.75
2023-04-15T09:20:21.694Z,6.78
2023-04-15T09:25:31.192Z,6.49
2023-04-15T09:30:39.804Z,6.52
2023-04-15T09:36:25.647Z,6.69
2023-04-15T09:41:32.216Z,6.77
2023-04-15T09:46:46.825Z,6.92
2023-04-15T09:52:06.348Z,6.73
2023-04-15T09:57:14.322Z,7.27
2023-04-15T10:02:24.795Z,7.21
2023-04-15T10:07:32.605Z,7.11
2023-04-15T10:12:42.232Z,7.17
2023-04-15T10:17:52.131Z,6.94
2023-04-15T10:22:59.048Z,7.05
2023-04-15T10:28:07.631Z,7.05
2023-04-15T10:33:15.219Z,7.31
2023-04-15T10:38:47.407Z,7.35
2023-04-15T10:44:06.127Z,7.32
2023-04-15T10:49:14.764Z,7.33
2023-04-15T10:54:29.276Z,7.40
2023-04-15T10:59:59.206Z,7.35
2023-04-15T11:05:06.263Z,7.27
2023-04-15T11:10:33.285Z,7.50
2023-04-15T11:15:42.238Z,7.47
2023-04-15T11:20:55.446Z,7.56
2023-04-15T11:26:04.435Z,7.76
2023-04-15T11:31:15.696Z,7.89
2023-04-15T11:36:27.928Z,7.78
2023-04-15T11:41:36.638Z,7.83
2023-04-15T11:46:45.529Z,7.84
2023-04-15T11:51:52.468Z,7.57
2023-04-15T11:56:57.979Z,7.53
2023-04-15T12:02:15.276Z,7.53
2023-04-15T12:07:20.560Z,7.62
2023-04-15T12:12:30.310Z,7.89
2023-04-15T12:17:51.827Z,7.81
2023-04-15T12:23:07.794Z,7.61
2023-04-15T12:28:12.690Z,7.66
2023-04-15T12:33:18.748Z,7.62
2023-04-15T12:38:23.823Z,7.59
2023-04-15T12:43:29.255Z,7.47
2023-04-15T12:48:35.663Z,7.47
2023-04-15T12:53:41.381Z,7.36
2023-04-15T12:58:46.887Z,7.52
2023-04-15T13:03:52.716Z,7.36
2023-04-15T13:08:59.071Z,7.21
2023-04-15T13:14:07.368Z,7.25
2023-04-15T13:19:12.797Z,7.34
2023-04-15T13:24:18.697Z,7.25
2023-04-15T13:29:24.272Z,7.35
2023-04-15T13:34:29.657Z,7.26
2023-04-15T13:39:35.262Z,7.05
2023-04-15T13:44:41.054Z,7.02
2023-04-15T13:49:46.610Z,6.95
2023-04-15T13:55:08.810Z,6.98
2023-04-15T14:00:19.687Z,6.85
2023-04-15T14:05:25.034Z,6.88
2023-04-15T14:10:30.437Z,6.68
2023-04-15T14:15:35.806Z,6.69
2023-04-15T14:20:41.236Z,6.64
2023-04-15T14:25:48.302Z,6.65
2023-04-15T14:30:54.445Z,6.64
2023-04-15T14:35:59.792Z,6.57
2023-04-15T14:41:06.118Z,6.55
2023-04-15T14:46:12.329Z,6.46
2023-04-15T14:51:18.137Z,6.21
2023-04-15T14:56:23.681Z,6.21
2023-04-15T15:01:30.330Z,6.15
2023-04-15T15:06:36.264Z,6.08
2023-04-15T15:11:41.893Z,5.96
2023-04-15T15:16:47.594Z,5.90
2023-04-15T15:21:53.042Z,5.82
2023-04-15T15:26:58.702Z,5.72
2023-04-15T15:32:04.244Z,5.62
2023-04-15T15:37:09.786Z,5.50
2023-04-15T15:42:15.445Z,5.38
2023-04-15T15:47:22.892Z,5.21
2023-04-15T15:52:28.737Z,5.20
2023-04-15T15:57:34.201Z,5.04
2023-04-15T16:03:05.085Z,4.97
2023-04-15T16:08:06.371Z,4.82
2023-04-15T16:13:12.014Z,4.74
2023-04-15T16:18:18.082Z,4.60
2023-04-15T16:23:24.272Z,4.48
2023-04-15T16:28:29.749Z,4.44
2023-04-15T16:33:35.396Z,4.32
2023-04-15T16:38:40.864Z,4.30
2023-04-15T16:43:46.659Z,4.20
2023-04-15T16:48:52.297Z,4.13
2023-04-15T16:53:57.760Z,4.05
2023-04-15T16:59:03.432Z,4.00
2023-04-15T17:04:09.397Z,3.96
2023-04-15T17:09:14.949Z,3.94
2023-04-15T17:14:20.397Z,3.79
2023-04-15T17:19:28.429Z,3.87
2023-04-15T17:24:46.052Z,3.69
2023-04-15T17:29:54.155Z,3.39
2023-04-15T17:35:20.663Z,3.17
2023-04-15T17:40:47.262Z,2.91
2023-04-15T17:46:14.336Z,2.73
2023-04-15T17:51:41.247Z,2.60
2023-04-15T17:57:08.119Z,2.46
2023-04-15T18:02:36.923Z,2.45
2023-04-15T18:08:04.423Z,2.43
2023-04-15T18:13:30.654Z,2.39
2023-04-15T18:18:57.121Z,2.40
2023-04-15T18:24:02.442Z,2.22
2023-04-15T18:29:08.250Z,2.29
2023-04-15T18:34:14.133Z,2.32
2023-04-15T18:39:18.944Z,2.21
2023-04-15T18:44:24.631Z,2.10
2023-04-15T18:49:30.858Z,1.99
2023-04-15T18:54:36.935Z,1.80
2023-04-15T18:59:42.308Z,1.71
2023-04-15T19:04:47.986Z,1.66
2023-04-15T19:09:53.993Z,1.61
2023-04-15T19:14:59.599Z,1.67
2023-04-15T19:20:05.571Z,1.66
2023-04-15T19:25:11.037Z,1.67
2023-04-15T19:30:16.969Z,1.63
2023-04-15T19:35:22.003Z,1.60
2023-04-15T19:40:27.409Z,1.32
2023-04-15T19:45:32.786Z,1.27
2023-04-15T19:50:38.355Z,1.29
2023-04-15T19:55:44.177Z,1.27
2023-04-15T20:00:49.487Z,0.95
2023-04-15T20:05:54.796Z,0.38
2023-04-15T20:11:01.718Z,0.16
2023-04-15T20:16:08.312Z,0.03
2023-04-15T20:21:13.715Z,-0.04
2023-04-15T20:26:20.165Z,-0.04
2023-04-15T20:31:25.323Z,-0.32
2023-04-15T20:36:32.233Z,-0.34
2023-04-15T20:41:37.772Z,-0.35
2023-04-15T20:46:43.290Z,-0.22
2023-04-15T20:51:49.458Z,-0.18
2023-04-15T20:56:54.891Z,-0.05
2023-04-15T21:02:00.256Z,-0.30
2023-04-15T21:07:06.102Z,-0.13
2023-04-15T21:12:12.157Z,0.01
2023-04-15T21:17:36.991Z,0.36
2023-04-15T21:22:43.082Z,0.62
2023-04-15T21:27:48.381Z,0.68
2023-04-15T21:32:53.961Z,0.72
2023-04-15T21:37:59.301Z,0.91
2023-04-15T21:43:04.778Z,1.11
2023-04-15T21:48:10.186Z,1.31
2023-04-15T21:53:15.541Z,1.41
2023-04-15T21:58:20.909Z,1.55
2023-04-15T22:03:26.371Z,1.55
2023-04-15T22:08:41.336Z,1.65
2023-04-15T22:13:52.626Z,1.37
2023-04-15T22:18:58.253Z,0.91
2023-04-15T22:24:32.237Z,0.67
2023-04-15T22:29:30.605Z,0.72
2023-04-15T22:34:36.014Z,0.79
2023-04-15T22:39:41.624Z,0.58
2023-04-15T22:44:46.678Z,0.74
2023-04-15T22:49:52.064Z,0.64
2023-04-15T22:54:57.802Z,0.49
2023-04-15T23:00:03.352Z,0.45
2023-04-15T23:05:12.446Z,0.29
2023-04-15T23:10:21.469Z,0.20
2023-04-15T23:15:26.625Z,0.18
2023-04-15T23:20:32.225Z,0.11
2023-04-15T23:25:37.794Z,0.10
2023-04-15T23:30:43.372Z,0.02
2023-04-15T23:35:48.702Z,0.05
2023-04-15T23:40:54.208Z,0.08
2023-04-15T23:45:59.574Z,0.13
2023-04-15T23:51:06.169Z,0.19
2023-04-15T23:56:11.614Z,0.13
